sensor_id;sensor_type;location;lat;lon;timestamp;P1;durP1;ratioP1;P2;durP2;ratioP2
10226;SDS011;15634;48.766;2.272;2022-07-23T00:00:15;32.47;;;22.40;;
10226;SDS011;15634;48.766;2.272;2022-07-23T00:02:42;29.55;;;21.27;;
10226;SDS011;15634;48.766;2.272;2022-07-23T00:05:09;31.48;;;21.77;;
10226;SDS011;15634;48.766;2.272;2022-07-23T00:07:36;29.23;;;20.55;;
10226;SDS011;15634;48.766;2.272;2022-07-23T00:10:05;29.83;;;21.75;;
10226;SDS011;15634;48.766;2.272;2022-07-23T00:12:32;33.47;;;22.88;;
10226;SDS011;15634;48.766;2.272;2022-07-23T00:14:58;34.50;;;23.75;;
10226;SDS011;15634;48.766;2.272;2022-07-23T00:17:25;37.33;;;25.17;;
10226;SDS011;15634;48.766;2.272;2022-07-23T00:19:52;37.63;;;26.60;;
10226;SDS011;15634;48.766;2.272;2022-07-23T00:22:19;41.10;;;24.85;;
10226;SDS011;15634;48.766;2.272;2022-07-23T00:24:45;35.45;;;23.13;;
10226;SDS011;15634;48.766;2.272;2022-07-23T00:27:13;40.00;;;25.30;;
10226;SDS011;15634;48.766;2.272;2022-07-23T00:29:40;36.15;;;25.92;;
10226;SDS011;15634;48.766;2.272;2022-07-23T00:32:07;43.58;;;26.38;;
10226;SDS011;15634;48.766;2.272;2022-07-23T00:34:33;40.55;;;26.10;;
10226;SDS011;15634;48.766;2.272;2022-07-23T00:37:00;43.63;;;27.80;;
10226;SDS011;15634;48.766;2.272;2022-07-23T00:39:27;39.70;;;26.73;;
10226;SDS011;15634;48.766;2.272;2022-07-23T00:41:53;43.65;;;27.50;;
10226;SDS011;15634;48.766;2.272;2022-07-23T00:44:22;38.97;;;26.13;;
10226;SDS011;15634;48.766;2.272;2022-07-23T00:46:50;37.95;;;26.13;;
10226;SDS011;15634;48.766;2.272;2022-07-23T00:49:18;36.88;;;23.52;;
10226;SDS011;15634;48.766;2.272;2022-07-23T00:51:46;35.72;;;23.65;;
10226;SDS011;15634;48.766;2.272;2022-07-23T00:54:13;32.25;;;22.52;;
10226;SDS011;15634;48.766;2.272;2022-07-23T00:56:39;36.20;;;24.15;;
10226;SDS011;15634;48.766;2.272;2022-07-23T00:59:07;38.75;;;25.10;;
10226;SDS011;15634;48.766;2.272;2022-07-23T01:01:36;36.25;;;24.52;;
10226;SDS011;15634;48.766;2.272;2022-07-23T01:04:03;34.03;;;23.17;;
10226;SDS011;15634;48.766;2.272;2022-07-23T01:06:30;33.58;;;22.70;;
10226;SDS011;15634;48.766;2.272;2022-07-23T01:09:02;31.33;;;22.27;;
10226;SDS011;15634;48.766;2.272;2022-07-23T01:11:30;36.33;;;22.45;;
10226;SDS011;15634;48.766;2.272;2022-07-23T01:13:58;33.30;;;22.27;;
10226;SDS011;15634;48.766;2.272;2022-07-23T01:16:24;51.42;;;33.97;;
10226;SDS011;15634;48.766;2.272;2022-07-23T01:18:52;40.97;;;25.38;;
10226;SDS011;15634;48.766;2.272;2022-07-23T01:21:19;31.45;;;21.92;;
10226;SDS011;15634;48.766;2.272;2022-07-23T01:23:47;34.47;;;22.77;;
10226;SDS011;15634;48.766;2.272;2022-07-23T01:26:14;33.72;;;22.52;;
10226;SDS011;15634;48.766;2.272;2022-07-23T01:28:42;32.80;;;22.48;;
10226;SDS011;15634;48.766;2.272;2022-07-23T01:31:09;29.02;;;20.23;;
10226;SDS011;15634;48.766;2.272;2022-07-23T01:33:35;27.70;;;19.45;;
10226;SDS011;15634;48.766;2.272;2022-07-23T01:36:02;28.83;;;19.52;;
10226;SDS011;15634;48.766;2.272;2022-07-23T01:38:29;26.25;;;18.95;;
10226;SDS011;15634;48.766;2.272;2022-07-23T01:40:57;26.00;;;18.20;;
10226;SDS011;15634;48.766;2.272;2022-07-23T01:43:24;28.73;;;20.25;;
10226;SDS011;15634;48.766;2.272;2022-07-23T01:45:51;31.65;;;20.33;;
10226;SDS011;15634;48.766;2.272;2022-07-23T01:48:17;29.80;;;20.88;;
10226;SDS011;15634;48.766;2.272;2022-07-23T01:50:45;24.15;;;17.05;;
10226;SDS011;15634;48.766;2.272;2022-07-23T01:53:12;24.95;;;19.08;;
10226;SDS011;15634;48.766;2.272;2022-07-23T01:55:38;27.52;;;20.50;;
10226;SDS011;15634;48.766;2.272;2022-07-23T01:58:06;31.67;;;19.80;;
10226;SDS011;15634;48.766;2.272;2022-07-23T02:00:33;28.27;;;18.63;;
10226;SDS011;15634;48.766;2.272;2022-07-23T02:03:00;28.20;;;18.45;;
10226;SDS011;15634;48.766;2.272;2022-07-23T02:05:26;28.55;;;18.42;;
10226;SDS011;15634;48.766;2.272;2022-07-23T02:07:54;24.00;;;17.13;;
10226;SDS011;15634;48.766;2.272;2022-07-23T02:10:20;27.67;;;18.10;;
10226;SDS011;15634;48.766;2.272;2022-07-23T02:12:47;25.85;;;17.80;;
10226;SDS011;15634;48.766;2.272;2022-07-23T02:15:15;24.23;;;17.67;;
10226;SDS011;15634;48.766;2.272;2022-07-23T02:17:42;24.25;;;16.65;;
10226;SDS011;15634;48.766;2.272;2022-07-23T02:20:09;26.52;;;17.35;;
10226;SDS011;15634;48.766;2.272;2022-07-23T02:22:37;26.13;;;16.42;;
10226;SDS011;15634;48.766;2.272;2022-07-23T02:25:04;23.58;;;16.20;;
10226;SDS011;15634;48.766;2.272;2022-07-23T02:27:31;25.20;;;16.40;;
10226;SDS011;15634;48.766;2.272;2022-07-23T02:29:58;23.48;;;15.55;;
10226;SDS011;15634;48.766;2.272;2022-07-23T02:32:26;22.70;;;14.45;;
10226;SDS011;15634;48.766;2.272;2022-07-23T02:34:53;22.08;;;15.57;;
10226;SDS011;15634;48.766;2.272;2022-07-23T02:37:20;24.40;;;16.15;;
10226;SDS011;15634;48.766;2.272;2022-07-23T02:39:46;23.95;;;15.40;;
10226;SDS011;15634;48.766;2.272;2022-07-23T02:42:13;23.35;;;16.30;;
10226;SDS011;15634;48.766;2.272;2022-07-23T02:44:40;22.73;;;15.50;;
10226;SDS011;15634;48.766;2.272;2022-07-23T02:47:07;25.13;;;16.45;;
10226;SDS011;15634;48.766;2.272;2022-07-23T02:49:35;23.73;;;16.30;;
10226;SDS011;15634;48.766;2.272;2022-07-23T02:52:02;21.88;;;15.95;;
10226;SDS011;15634;48.766;2.272;2022-07-23T02:54:29;27.20;;;17.00;;
10226;SDS011;15634;48.766;2.272;2022-07-23T02:56:55;28.17;;;18.58;;
10226;SDS011;15634;48.766;2.272;2022-07-23T02:59:22;29.25;;;20.17;;
10226;SDS011;15634;48.766;2.272;2022-07-23T03:01:49;28.55;;;19.00;;
10226;SDS011;15634;48.766;2.272;2022-07-23T03:04:15;31.40;;;19.58;;
10226;SDS011;15634;48.766;2.272;2022-07-23T03:06:44;32.47;;;20.77;;
10226;SDS011;15634;48.766;2.272;2022-07-23T03:09:10;31.83;;;21.38;;
10226;SDS011;15634;48.766;2.272;2022-07-23T03:11:37;32.33;;;21.60;;
10226;SDS011;15634;48.766;2.272;2022-07-23T03:14:04;36.08;;;22.27;;
10226;SDS011;15634;48.766;2.272;2022-07-23T03:16:31;33.83;;;22.17;;
10226;SDS011;15634;48.766;2.272;2022-07-23T03:18:57;33.53;;;20.75;;
10226;SDS011;15634;48.766;2.272;2022-07-23T03:21:24;30.33;;;20.77;;
10226;SDS011;15634;48.766;2.272;2022-07-23T03:23:52;33.47;;;21.77;;
10226;SDS011;15634;48.766;2.272;2022-07-23T03:26:18;30.13;;;21.15;;
10226;SDS011;15634;48.766;2.272;2022-07-23T03:28:45;31.55;;;21.45;;
10226;SDS011;15634;48.766;2.272;2022-07-23T03:31:12;30.67;;;20.98;;
10226;SDS011;15634;48.766;2.272;2022-07-23T03:33:38;33.35;;;22.38;;
10226;SDS011;15634;48.766;2.272;2022-07-23T03:36:06;30.85;;;21.13;;
10226;SDS011;15634;48.766;2.272;2022-07-23T03:38:34;32.88;;;20.90;;
10226;SDS011;15634;48.766;2.272;2022-07-23T03:41:02;32.03;;;22.17;;
10226;SDS011;15634;48.766;2.272;2022-07-23T03:43:29;33.45;;;21.95;;
10226;SDS011;15634;48.766;2.272;2022-07-23T03:45:56;34.85;;;22.20;;
10226;SDS011;15634;48.766;2.272;2022-07-23T03:48:23;30.52;;;21.38;;
10226;SDS011;15634;48.766;2.272;2022-07-23T03:50:49;31.48;;;21.63;;
10226;SDS011;15634;48.766;2.272;2022-07-23T03:53:16;38.15;;;22.58;;
10226;SDS011;15634;48.766;2.272;2022-07-23T03:55:42;31.75;;;21.85;;
10226;SDS011;15634;48.766;2.272;2022-07-23T03:58:10;41.10;;;24.75;;
10226;SDS011;15634;48.766;2.272;2022-07-23T04:00:37;37.85;;;24.00;;
10226;SDS011;15634;48.766;2.272;2022-07-23T04:03:04;42.08;;;24.20;;
10226;SDS011;15634;48.766;2.272;2022-07-23T04:05:30;42.03;;;25.85;;
10226;SDS011;15634;48.766;2.272;2022-07-23T04:07:57;38.03;;;25.30;;
10226;SDS011;15634;48.766;2.272;2022-07-23T04:10:23;39.60;;;25.60;;
10226;SDS011;15634;48.766;2.272;2022-07-23T04:12:50;42.92;;;25.48;;
10226;SDS011;15634;48.766;2.272;2022-07-23T04:15:18;42.92;;;25.90;;
10226;SDS011;15634;48.766;2.272;2022-07-23T04:17:44;39.22;;;26.45;;
10226;SDS011;15634;48.766;2.272;2022-07-23T04:20:12;41.00;;;25.55;;
10226;SDS011;15634;48.766;2.272;2022-07-23T04:22:38;41.65;;;25.42;;
10226;SDS011;15634;48.766;2.272;2022-07-23T04:25:05;40.22;;;25.45;;
10226;SDS011;15634;48.766;2.272;2022-07-23T04:27:32;38.20;;;24.58;;
10226;SDS011;15634;48.766;2.272;2022-07-23T04:29:59;41.75;;;25.55;;
10226;SDS011;15634;48.766;2.272;2022-07-23T04:32:27;42.47;;;24.77;;
10226;SDS011;15634;48.766;2.272;2022-07-23T04:34:54;39.92;;;25.80;;
10226;SDS011;15634;48.766;2.272;2022-07-23T04:37:20;42.92;;;26.10;;
10226;SDS011;15634;48.766;2.272;2022-07-23T04:39:47;38.30;;;24.85;;
10226;SDS011;15634;48.766;2.272;2022-07-23T04:42:13;39.95;;;25.50;;
10226;SDS011;15634;48.766;2.272;2022-07-23T04:44:40;41.28;;;24.80;;
10226;SDS011;15634;48.766;2.272;2022-07-23T04:47:07;45.17;;;24.27;;
10226;SDS011;15634;48.766;2.272;2022-07-23T04:49:35;37.30;;;23.67;;
10226;SDS011;15634;48.766;2.272;2022-07-23T04:52:01;35.70;;;22.33;;
10226;SDS011;15634;48.766;2.272;2022-07-23T04:54:28;34.97;;;21.98;;
10226;SDS011;15634;48.766;2.272;2022-07-23T04:56:55;33.25;;;19.92;;
10226;SDS011;15634;48.766;2.272;2022-07-23T04:59:22;29.98;;;19.65;;
10226;SDS011;15634;48.766;2.272;2022-07-23T05:01:48;30.17;;;18.40;;
10226;SDS011;15634;48.766;2.272;2022-07-23T05:04:15;32.88;;;19.05;;
10226;SDS011;15634;48.766;2.272;2022-07-23T05:06:43;33.78;;;19.27;;
10226;SDS011;15634;48.766;2.272;2022-07-23T05:09:09;32.20;;;18.20;;
10226;SDS011;15634;48.766;2.272;2022-07-23T05:11:36;30.70;;;18.60;;
10226;SDS011;15634;48.766;2.272;2022-07-23T05:14:02;28.63;;;18.00;;
10226;SDS011;15634;48.766;2.272;2022-07-23T05:16:29;32.83;;;18.52;;
10226;SDS011;15634;48.766;2.272;2022-07-23T05:18:56;29.67;;;19.15;;
10226;SDS011;15634;48.766;2.272;2022-07-23T05:21:23;28.60;;;18.80;;
10226;SDS011;15634;48.766;2.272;2022-07-23T05:23:51;34.45;;;19.52;;
10226;SDS011;15634;48.766;2.272;2022-07-23T05:26:17;32.78;;;19.00;;
10226;SDS011;15634;48.766;2.272;2022-07-23T05:28:44;33.97;;;19.73;;
10226;SDS011;15634;48.766;2.272;2022-07-23T05:31:10;29.40;;;19.10;;
10226;SDS011;15634;48.766;2.272;2022-07-23T05:33:37;31.38;;;19.40;;
10226;SDS011;15634;48.766;2.272;2022-07-23T05:36:04;31.13;;;19.40;;
10226;SDS011;15634;48.766;2.272;2022-07-23T05:38:31;31.35;;;18.95;;
10226;SDS011;15634;48.766;2.272;2022-07-23T05:41:00;32.60;;;19.40;;
10226;SDS011;15634;48.766;2.272;2022-07-23T05:43:26;31.33;;;18.92;;
10226;SDS011;15634;48.766;2.272;2022-07-23T05:45:53;29.27;;;19.52;;
10226;SDS011;15634;48.766;2.272;2022-07-23T05:48:20;33.40;;;21.13;;
10226;SDS011;15634;48.766;2.272;2022-07-23T05:50:46;34.83;;;21.67;;
10226;SDS011;15634;48.766;2.272;2022-07-23T05:53:14;33.83;;;22.05;;
10226;SDS011;15634;48.766;2.272;2022-07-23T05:55:40;33.67;;;21.48;;
10226;SDS011;15634;48.766;2.272;2022-07-23T05:58:08;37.33;;;23.38;;
10226;SDS011;15634;48.766;2.272;2022-07-23T06:00:35;36.78;;;20.90;;
10226;SDS011;15634;48.766;2.272;2022-07-23T06:03:02;35.85;;;22.05;;
10226;SDS011;15634;48.766;2.272;2022-07-23T06:05:28;36.63;;;21.15;;
10226;SDS011;15634;48.766;2.272;2022-07-23T06:07:55;40.17;;;21.75;;
10226;SDS011;15634;48.766;2.272;2022-07-23T06:10:22;34.05;;;21.55;;
10226;SDS011;15634;48.766;2.272;2022-07-23T06:12:48;34.08;;;22.08;;
10226;SDS011;15634;48.766;2.272;2022-07-23T06:15:16;36.55;;;21.35;;
10226;SDS011;15634;48.766;2.272;2022-07-23T06:17:43;40.95;;;22.50;;
10226;SDS011;15634;48.766;2.272;2022-07-23T06:20:10;42.63;;;23.67;;
10226;SDS011;15634;48.766;2.272;2022-07-23T06:22:37;42.88;;;22.45;;
10226;SDS011;15634;48.766;2.272;2022-07-23T06:25:04;42.75;;;24.63;;
10226;SDS011;15634;48.766;2.272;2022-07-23T06:27:32;38.33;;;24.40;;
10226;SDS011;15634;48.766;2.272;2022-07-23T06:29:59;43.80;;;23.73;;
10226;SDS011;15634;48.766;2.272;2022-07-23T06:32:27;42.42;;;24.90;;
10226;SDS011;15634;48.766;2.272;2022-07-23T06:34:54;46.53;;;23.67;;
10226;SDS011;15634;48.766;2.272;2022-07-23T06:37:20;42.70;;;24.08;;
10226;SDS011;15634;48.766;2.272;2022-07-23T06:39:47;46.47;;;24.27;;
10226;SDS011;15634;48.766;2.272;2022-07-23T06:42:14;41.80;;;24.38;;
10226;SDS011;15634;48.766;2.272;2022-07-23T06:44:40;43.22;;;23.65;;
10226;SDS011;15634;48.766;2.272;2022-07-23T06:47:07;38.63;;;24.00;;
10226;SDS011;15634;48.766;2.272;2022-07-23T06:49:35;40.13;;;23.02;;
10226;SDS011;15634;48.766;2.272;2022-07-23T06:52:02;38.05;;;22.85;;
10226;SDS011;15634;48.766;2.272;2022-07-23T06:54:29;42.35;;;23.58;;
10226;SDS011;15634;48.766;2.272;2022-07-23T06:56:55;46.30;;;23.77;;
10226;SDS011;15634;48.766;2.272;2022-07-23T06:59:22;47.50;;;24.58;;
10226;SDS011;15634;48.766;2.272;2022-07-23T07:01:49;53.92;;;23.98;;
10226;SDS011;15634;48.766;2.272;2022-07-23T07:04:15;45.05;;;24.98;;
10226;SDS011;15634;48.766;2.272;2022-07-23T07:06:43;44.22;;;22.83;;
10226;SDS011;15634;48.766;2.272;2022-07-23T07:09:10;47.20;;;24.45;;
10226;SDS011;15634;48.766;2.272;2022-07-23T07:11:36;54.22;;;24.75;;
10226;SDS011;15634;48.766;2.272;2022-07-23T07:14:03;52.00;;;26.30;;
10226;SDS011;15634;48.766;2.272;2022-07-23T07:16:30;45.50;;;24.58;;
10226;SDS011;15634;48.766;2.272;2022-07-23T07:18:57;45.78;;;24.05;;
10226;SDS011;15634;48.766;2.272;2022-07-23T07:21:23;43.47;;;23.48;;
10226;SDS011;15634;48.766;2.272;2022-07-23T07:23:53;48.78;;;23.75;;
10226;SDS011;15634;48.766;2.272;2022-07-23T07:26:20;38.80;;;22.80;;
10226;SDS011;15634;48.766;2.272;2022-07-23T07:28:46;41.67;;;22.42;;
10226;SDS011;15634;48.766;2.272;2022-07-23T07:31:13;35.33;;;20.38;;
10226;SDS011;15634;48.766;2.272;2022-07-23T07:33:40;42.85;;;22.08;;
10226;SDS011;15634;48.766;2.272;2022-07-23T07:36:06;44.55;;;24.17;;
10226;SDS011;15634;48.766;2.272;2022-07-23T07:38:34;48.60;;;23.13;;
10226;SDS011;15634;48.766;2.272;2022-07-23T07:41:02;38.95;;;21.27;;
10226;SDS011;15634;48.766;2.272;2022-07-23T07:43:28;44.85;;;23.33;;
10226;SDS011;15634;48.766;2.272;2022-07-23T07:45:55;44.55;;;23.80;;
10226;SDS011;15634;48.766;2.272;2022-07-23T07:48:22;53.92;;;25.77;;
10226;SDS011;15634;48.766;2.272;2022-07-23T07:50:48;49.28;;;25.23;;
10226;SDS011;15634;48.766;2.272;2022-07-23T07:53:15;48.13;;;23.55;;
10226;SDS011;15634;48.766;2.272;2022-07-23T07:55:41;47.60;;;24.63;;
10226;SDS011;15634;48.766;2.272;2022-07-23T07:58:09;45.65;;;23.70;;
10226;SDS011;15634;48.766;2.272;2022-07-23T08:00:36;55.58;;;24.38;;
10226;SDS011;15634;48.766;2.272;2022-07-23T08:03:03;40.75;;;23.25;;
10226;SDS011;15634;48.766;2.272;2022-07-23T08:05:29;42.17;;;23.65;;
10226;SDS011;15634;48.766;2.272;2022-07-23T08:07:57;48.72;;;21.52;;
10226;SDS011;15634;48.766;2.272;2022-07-23T08:10:24;47.08;;;22.95;;
10226;SDS011;15634;48.766;2.272;2022-07-23T08:12:52;42.70;;;22.20;;
10226;SDS011;15634;48.766;2.272;2022-07-23T08:15:23;43.92;;;22.27;;
10226;SDS011;15634;48.766;2.272;2022-07-23T08:17:51;39.30;;;21.63;;
10226;SDS011;15634;48.766;2.272;2022-07-23T08:20:18;42.58;;;22.13;;
10226;SDS011;15634;48.766;2.272;2022-07-23T08:22:47;46.60;;;23.42;;
10226;SDS011;15634;48.766;2.272;2022-07-23T08:25:15;44.20;;;23.30;;
10226;SDS011;15634;48.766;2.272;2022-07-23T08:27:42;45.40;;;23.17;;
10226;SDS011;15634;48.766;2.272;2022-07-23T08:30:09;39.67;;;21.52;;
10226;SDS011;15634;48.766;2.272;2022-07-23T08:32:54;40.28;;;21.42;;
10226;SDS011;15634;48.766;2.272;2022-07-23T08:35:22;43.05;;;23.05;;
10226;SDS011;15634;48.766;2.272;2022-07-23T08:37:50;37.00;;;21.80;;
10226;SDS011;15634;48.766;2.272;2022-07-23T08:40:17;39.75;;;22.08;;
10226;SDS011;15634;48.766;2.272;2022-07-23T08:42:45;40.38;;;21.40;;
10226;SDS011;15634;48.766;2.272;2022-07-23T08:45:15;33.55;;;18.45;;
10226;SDS011;15634;48.766;2.272;2022-07-23T08:47:42;37.97;;;21.33;;
10226;SDS011;15634;48.766;2.272;2022-07-23T08:50:11;34.67;;;21.40;;
10226;SDS011;15634;48.766;2.272;2022-07-23T08:52:37;33.13;;;19.88;;
10226;SDS011;15634;48.766;2.272;2022-07-23T08:55:05;34.58;;;21.52;;
10226;SDS011;15634;48.766;2.272;2022-07-23T08:57:33;32.03;;;19.35;;
10226;SDS011;15634;48.766;2.272;2022-07-23T08:59:59;32.55;;;19.33;;
10226;SDS011;15634;48.766;2.272;2022-07-23T09:02:26;37.88;;;21.17;;
10226;SDS011;15634;48.766;2.272;2022-07-23T09:04:53;38.28;;;20.45;;
10226;SDS011;15634;48.766;2.272;2022-07-23T09:07:21;35.53;;;21.38;;
10226;SDS011;15634;48.766;2.272;2022-07-23T09:09:49;35.05;;;19.83;;
10226;SDS011;15634;48.766;2.272;2022-07-23T09:12:31;35.05;;;20.73;;
10226;SDS011;15634;48.766;2.272;2022-07-23T09:14:57;36.97;;;20.38;;
10226;SDS011;15634;48.766;2.272;2022-07-23T09:17:30;35.90;;;19.57;;
10226;SDS011;15634;48.766;2.272;2022-07-23T09:20:10;37.40;;;21.73;;
10226;SDS011;15634;48.766;2.272;2022-07-23T09:22:40;36.00;;;21.00;;
10226;SDS011;15634;48.766;2.272;2022-07-23T09:25:08;32.90;;;20.70;;
10226;SDS011;15634;48.766;2.272;2022-07-23T09:27:52;36.38;;;20.55;;
10226;SDS011;15634;48.766;2.272;2022-07-23T09:30:22;33.88;;;19.40;;
10226;SDS011;15634;48.766;2.272;2022-07-23T09:35:48;30.63;;;19.15;;
10226;SDS011;15634;48.766;2.272;2022-07-23T09:38:17;29.80;;;19.25;;
10226;SDS011;15634;48.766;2.272;2022-07-23T09:40:46;28.33;;;18.02;;
10226;SDS011;15634;48.766;2.272;2022-07-23T09:43:14;30.50;;;16.55;;
10226;SDS011;15634;48.766;2.272;2022-07-23T09:45:52;23.02;;;14.25;;
10226;SDS011;15634;48.766;2.272;2022-07-23T09:48:21;32.35;;;16.85;;
10226;SDS011;15634;48.766;2.272;2022-07-23T09:50:48;27.92;;;15.63;;
10226;SDS011;15634;48.766;2.272;2022-07-23T09:53:24;23.85;;;14.05;;
10226;SDS011;15634;48.766;2.272;2022-07-23T09:55:52;25.05;;;14.88;;
10226;SDS011;15634;48.766;2.272;2022-07-23T09:58:23;31.65;;;19.10;;
10226;SDS011;15634;48.766;2.272;2022-07-23T10:00:52;30.35;;;19.13;;
10226;SDS011;15634;48.766;2.272;2022-07-23T10:03:19;26.13;;;15.98;;
10226;SDS011;15634;48.766;2.272;2022-07-23T10:05:46;34.25;;;19.95;;
10226;SDS011;15634;48.766;2.272;2022-07-23T10:08:14;33.65;;;19.88;;
10226;SDS011;15634;48.766;2.272;2022-07-23T10:10:45;29.98;;;18.90;;
10226;SDS011;15634;48.766;2.272;2022-07-23T10:13:12;27.60;;;17.17;;
10226;SDS011;15634;48.766;2.272;2022-07-23T10:16:00;21.60;;;14.52;;
10226;SDS011;15634;48.766;2.272;2022-07-23T10:18:27;31.92;;;18.27;;
10226;SDS011;15634;48.766;2.272;2022-07-23T10:20:53;25.67;;;16.23;;
10226;SDS011;15634;48.766;2.272;2022-07-23T10:23:22;28.15;;;17.52;;
10226;SDS011;15634;48.766;2.272;2022-07-23T10:25:58;24.27;;;14.98;;
10226;SDS011;15634;48.766;2.272;2022-07-23T10:28:41;21.40;;;13.25;;
10226;SDS011;15634;48.766;2.272;2022-07-23T10:31:14;26.85;;;17.30;;
10226;SDS011;15634;48.766;2.272;2022-07-23T10:33:50;30.88;;;18.50;;
10226;SDS011;15634;48.766;2.272;2022-07-23T10:38:50;27.38;;;17.38;;
10226;SDS011;15634;48.766;2.272;2022-07-23T10:41:31;19.87;;;14.60;;
10226;SDS011;15634;48.766;2.272;2022-07-23T10:44:08;25.98;;;17.05;;
10226;SDS011;15634;48.766;2.272;2022-07-23T10:46:36;24.85;;;16.63;;
10226;SDS011;15634;48.766;2.272;2022-07-23T10:49:26;22.02;;;14.32;;
10226;SDS011;15634;48.766;2.272;2022-07-23T10:54:44;25.63;;;15.45;;
10226;SDS011;15634;48.766;2.272;2022-07-23T10:57:12;26.25;;;16.98;;
10226;SDS011;15634;48.766;2.272;2022-07-23T11:02:45;26.38;;;16.95;;
10226;SDS011;15634;48.766;2.272;2022-07-23T11:05:13;25.10;;;17.35;;
10226;SDS011;15634;48.766;2.272;2022-07-23T11:10:42;25.05;;;16.88;;
10226;SDS011;15634;48.766;2.272;2022-07-23T11:13:31;27.08;;;15.52;;
10226;SDS011;15634;48.766;2.272;2022-07-23T11:18:53;23.10;;;14.85;;
10226;SDS011;15634;48.766;2.272;2022-07-23T11:24:16;27.08;;;16.17;;
10226;SDS011;15634;48.766;2.272;2022-07-23T11:26:45;25.00;;;15.90;;
10226;SDS011;15634;48.766;2.272;2022-07-23T11:32:18;30.92;;;18.35;;
10226;SDS011;15634;48.766;2.272;2022-07-23T11:34:47;28.40;;;18.73;;
10226;SDS011;15634;48.766;2.272;2022-07-23T11:37:26;27.00;;;17.58;;
10226;SDS011;15634;48.766;2.272;2022-07-23T11:40:01;27.70;;;17.98;;
10226;SDS011;15634;48.766;2.272;2022-07-23T11:42:29;26.27;;;18.00;;
10226;SDS011;15634;48.766;2.272;2022-07-23T11:44:57;29.90;;;19.48;;
10226;SDS011;15634;48.766;2.272;2022-07-23T11:47:24;22.90;;;15.85;;
10226;SDS011;15634;48.766;2.272;2022-07-23T11:49:52;28.10;;;18.15;;
10226;SDS011;15634;48.766;2.272;2022-07-23T11:52:19;27.88;;;17.80;;
10226;SDS011;15634;48.766;2.272;2022-07-23T11:54:50;27.77;;;17.20;;
10226;SDS011;15634;48.766;2.272;2022-07-23T11:57:17;23.38;;;15.60;;
10226;SDS011;15634;48.766;2.272;2022-07-23T11:59:45;24.30;;;15.93;;
10226;SDS011;15634;48.766;2.272;2022-07-23T12:02:14;22.67;;;15.00;;
10226;SDS011;15634;48.766;2.272;2022-07-23T12:04:41;21.20;;;15.30;;
10226;SDS011;15634;48.766;2.272;2022-07-23T12:07:28;20.85;;;13.70;;
10226;SDS011;15634;48.766;2.272;2022-07-23T12:09:56;19.70;;;12.77;;
10226;SDS011;15634;48.766;2.272;2022-07-23T12:12:24;19.10;;;12.90;;
10226;SDS011;15634;48.766;2.272;2022-07-23T12:14:51;19.90;;;12.55;;
10226;SDS011;15634;48.766;2.272;2022-07-23T12:17:21;18.88;;;13.30;;
10226;SDS011;15634;48.766;2.272;2022-07-23T12:19:53;22.55;;;15.05;;
10226;SDS011;15634;48.766;2.272;2022-07-23T12:22:20;22.90;;;15.27;;
10226;SDS011;15634;48.766;2.272;2022-07-23T12:24:55;22.85;;;14.43;;
10226;SDS011;15634;48.766;2.272;2022-07-23T12:27:23;19.10;;;13.57;;
10226;SDS011;15634;48.766;2.272;2022-07-23T12:29:50;18.50;;;13.20;;
10226;SDS011;15634;48.766;2.272;2022-07-23T12:32:18;19.15;;;12.85;;
10226;SDS011;15634;48.766;2.272;2022-07-23T12:34:47;20.20;;;12.27;;
10226;SDS011;15634;48.766;2.272;2022-07-23T12:39:57;15.27;;;11.88;;
10226;SDS011;15634;48.766;2.272;2022-07-23T12:42:24;17.85;;;11.60;;
10226;SDS011;15634;48.766;2.272;2022-07-23T12:45:04;15.68;;;11.60;;
10226;SDS011;15634;48.766;2.272;2022-07-23T12:47:50;21.10;;;12.55;;
10226;SDS011;15634;48.766;2.272;2022-07-23T12:50:36;19.38;;;12.57;;
10226;SDS011;15634;48.766;2.272;2022-07-23T12:53:09;16.75;;;11.40;;
10226;SDS011;15634;48.766;2.272;2022-07-23T12:55:38;19.67;;;12.30;;
10226;SDS011;15634;48.766;2.272;2022-07-23T12:58:06;19.17;;;12.70;;
10226;SDS011;15634;48.766;2.272;2022-07-23T13:00:48;20.55;;;12.70;;
10226;SDS011;15634;48.766;2.272;2022-07-23T13:03:29;19.17;;;13.10;;
10226;SDS011;15634;48.766;2.272;2022-07-23T13:05:59;19.05;;;12.25;;
10226;SDS011;15634;48.766;2.272;2022-07-23T13:08:27;18.42;;;12.23;;
10226;SDS011;15634;48.766;2.272;2022-07-23T13:10:55;18.80;;;12.32;;
10226;SDS011;15634;48.766;2.272;2022-07-23T13:13:22;14.15;;;10.18;;
10226;SDS011;15634;48.766;2.272;2022-07-23T13:15:50;15.38;;;11.25;;
10226;SDS011;15634;48.766;2.272;2022-07-23T13:18:17;17.40;;;11.63;;
10226;SDS011;15634;48.766;2.272;2022-07-23T13:20:45;18.45;;;12.00;;
10226;SDS011;15634;48.766;2.272;2022-07-23T13:23:14;16.75;;;11.52;;
10226;SDS011;15634;48.766;2.272;2022-07-23T13:25:42;15.43;;;10.77;;
10226;SDS011;15634;48.766;2.272;2022-07-23T13:28:09;15.43;;;11.35;;
10226;SDS011;15634;48.766;2.272;2022-07-23T13:30:35;17.15;;;11.75;;
10226;SDS011;15634;48.766;2.272;2022-07-23T13:33:03;17.23;;;11.27;;
10226;SDS011;15634;48.766;2.272;2022-07-23T13:35:30;16.02;;;11.65;;
10226;SDS011;15634;48.766;2.272;2022-07-23T13:37:57;16.52;;;11.40;;
10226;SDS011;15634;48.766;2.272;2022-07-23T13:40:27;14.85;;;11.18;;
10226;SDS011;15634;48.766;2.272;2022-07-23T13:42:54;18.48;;;12.65;;
10226;SDS011;15634;48.766;2.272;2022-07-23T13:45:21;16.50;;;10.82;;
10226;SDS011;15634;48.766;2.272;2022-07-23T13:47:48;14.43;;;10.95;;
10226;SDS011;15634;48.766;2.272;2022-07-23T13:50:14;22.95;;;12.15;;
10226;SDS011;15634;48.766;2.272;2022-07-23T13:52:42;17.63;;;11.88;;
10226;SDS011;15634;48.766;2.272;2022-07-23T13:55:09;15.13;;;10.52;;
10226;SDS011;15634;48.766;2.272;2022-07-23T13:57:37;14.27;;;9.73;;
10226;SDS011;15634;48.766;2.272;2022-07-23T14:00:04;16.15;;;9.50;;
10226;SDS011;15634;48.766;2.272;2022-07-23T14:02:32;15.15;;;10.23;;
10226;SDS011;15634;48.766;2.272;2022-07-23T14:04:59;15.45;;;9.93;;
10226;SDS011;15634;48.766;2.272;2022-07-23T14:07:26;17.38;;;10.57;;
10226;SDS011;15634;48.766;2.272;2022-07-23T14:09:52;15.70;;;10.70;;
10226;SDS011;15634;48.766;2.272;2022-07-23T14:12:19;16.58;;;9.70;;
10226;SDS011;15634;48.766;2.272;2022-07-23T14:14:47;13.77;;;10.77;;
10226;SDS011;15634;48.766;2.272;2022-07-23T14:17:14;17.15;;;9.90;;
10226;SDS011;15634;48.766;2.272;2022-07-23T14:19:40;13.07;;;9.57;;
10226;SDS011;15634;48.766;2.272;2022-07-23T14:22:07;13.90;;;9.52;;
10226;SDS011;15634;48.766;2.272;2022-07-23T14:24:34;11.77;;;8.90;;
10226;SDS011;15634;48.766;2.272;2022-07-23T14:27:01;12.70;;;9.10;;
10226;SDS011;15634;48.766;2.272;2022-07-23T14:29:28;11.48;;;8.27;;
10226;SDS011;15634;48.766;2.272;2022-07-23T14:31:56;11.77;;;8.80;;
10226;SDS011;15634;48.766;2.272;2022-07-23T14:34:23;12.43;;;8.02;;
10226;SDS011;15634;48.766;2.272;2022-07-23T14:36:50;12.07;;;8.52;;
10226;SDS011;15634;48.766;2.272;2022-07-23T14:39:17;12.20;;;8.57;;
10226;SDS011;15634;48.766;2.272;2022-07-23T14:41:44;10.85;;;8.38;;
10226;SDS011;15634;48.766;2.272;2022-07-23T14:44:10;11.63;;;9.02;;
10226;SDS011;15634;48.766;2.272;2022-07-23T14:46:37;11.13;;;8.63;;
10226;SDS011;15634;48.766;2.272;2022-07-23T14:49:05;12.43;;;8.65;;
10226;SDS011;15634;48.766;2.272;2022-07-23T14:51:32;13.85;;;8.48;;
10226;SDS011;15634;48.766;2.272;2022-07-23T14:53:59;11.13;;;8.82;;